createdAt,value
2022-08-23T00:01:31.297Z,59.25
2022-08-23T00:04:05.142Z,58.93
2022-08-23T00:06:32.767Z,58.44
2022-08-23T00:09:00.040Z,58.77
2022-08-23T00:11:41.440Z,58.36
2022-08-23T00:14:16.731Z,58.80
2022-08-23T00:16:44.719Z,59.10
2022-08-23T00:19:13.661Z,59.35
2022-08-23T00:21:41.019Z,59.13
2022-08-23T00:24:09.310Z,59.11
2022-08-23T00:27:16.599Z,59.49
2022-08-23T00:29:52.069Z,60.47
2022-08-23T00:32:25.779Z,60.53
2022-08-23T00:34:53.263Z,60.69
2022-08-23T00:37:21.279Z,60.85
2022-08-23T00:39:49.205Z,60.43
2022-08-23T00:42:52.778Z,59.74
2022-08-23T00:45:43.761Z,60.61
2022-08-23T00:48:11.431Z,60.68
2022-08-23T00:50:58.043Z,60.48
2022-08-23T00:53:34.717Z,60.49
2022-08-23T00:56:04.530Z,60.16
2022-08-23T00:58:31.912Z,60.25
2022-08-23T01:01:02.276Z,60.26
2022-08-23T01:03:38.629Z,60.88
2022-08-23T01:06:10.118Z,60.74
2022-08-23T01:08:38.757Z,60.59
2022-08-23T01:11:32.865Z,60.64
2022-08-23T01:14:07.502Z,61.05
2022-08-23T01:16:46.329Z,61.00
2022-08-23T01:19:19.785Z,61.05
2022-08-23T01:22:00.568Z,60.83
2022-08-23T01:25:06.441Z,60.96
2022-08-23T01:27:15.719Z,61.40
2022-08-23T01:29:43.025Z,61.23
2022-08-23T01:32:11.325Z,61.35
2022-08-23T01:34:45.434Z,61.48
2022-08-23T01:37:21.099Z,61.68
2022-08-23T01:39:49.284Z,61.44
2022-08-23T01:42:16.622Z,61.96
2022-08-23T01:44:44.063Z,61.87
2022-08-23T01:47:11.414Z,62.03
2022-08-23T01:49:38.877Z,62.02
2022-08-23T01:52:06.309Z,61.71
2022-08-23T01:54:33.705Z,61.55
2022-08-23T01:57:00.923Z,61.16
2022-08-23T01:59:28.587Z,60.77
2022-08-23T02:01:56.337Z,61.19
2022-08-23T02:04:23.992Z,61.28
2022-08-23T02:06:51.704Z,61.11
2022-08-23T02:09:22.891Z,62.56
2022-08-23T02:11:57.010Z,62.89
2022-08-23T02:14:24.575Z,63.59
2022-08-23T02:17:04.020Z,63.36
2022-08-23T02:19:34.518Z,63.34
2022-08-23T02:22:03.554Z,63.29
2022-08-23T02:24:31.800Z,63.71
2022-08-23T02:27:02.288Z,63.09
2022-08-23T02:29:30.948Z,63.90
2022-08-23T02:32:04.039Z,64.66
2022-08-23T02:34:32.193Z,64.59
2022-08-23T02:36:59.534Z,64.52
2022-08-23T02:39:27.147Z,65.33
2022-08-23T02:41:54.468Z,65.46
2022-08-23T02:44:21.932Z,65.98
2022-08-23T02:46:49.298Z,66.78
2022-08-23T02:49:17.851Z,66.50
2022-08-23T02:51:46.406Z,66.06
2022-08-23T02:54:13.810Z,66.60
2022-08-23T02:56:41.345Z,65.97
2022-08-23T02:59:09.083Z,65.74
2022-08-23T03:01:38.798Z,65.01
2022-08-23T03:04:28.397Z,64.39
2022-08-23T03:06:55.952Z,64.37
2022-08-23T03:09:23.930Z,64.23
2022-08-23T03:11:51.293Z,64.05
2022-08-23T03:14:20.739Z,64.42
2022-08-23T03:16:49.319Z,64.47
2022-08-23T03:19:16.647Z,64.54
2022-08-23T03:21:43.861Z,64.40
2022-08-23T03:24:13.753Z,64.13
2022-08-23T03:26:43.797Z,65.70
2022-08-23T03:29:12.457Z,65.24
2022-08-23T03:31:58.277Z,66.35
2022-08-23T03:34:26.306Z,66.37
2022-08-23T03:36:54.483Z,65.74
2022-08-23T03:39:22.100Z,65.15
2022-08-23T03:41:49.508Z,64.46
2022-08-23T03:44:17.954Z,64.39
2022-08-23T03:46:46.098Z,64.42
2022-08-23T03:49:13.329Z,64.52
2022-08-23T03:51:48.046Z,65.27
2022-08-23T03:54:15.382Z,66.39
2022-08-23T03:57:05.466Z,66.18
2022-08-23T03:59:36.674Z,66.79
2022-08-23T04:02:08.313Z,66.22
2022-08-23T04:04:38.651Z,66.08
2022-08-23T04:07:32.238Z,66.04
2022-08-23T04:09:59.625Z,65.77
2022-08-23T04:12:32.097Z,66.49
2022-08-23T04:14:59.375Z,66.35
2022-08-23T04:17:26.812Z,66.48
2022-08-23T04:19:54.117Z,66.13
2022-08-23T04:22:21.586Z,65.58
2022-08-23T04:24:49.520Z,66.73
2022-08-23T04:27:17.354Z,67.28
2022-08-23T04:29:46.291Z,67.99
2022-08-23T04:32:15.357Z,68.09
2022-08-23T04:34:56.339Z,68.03
2022-08-23T04:37:23.598Z,68.52
2022-08-23T04:40:09.591Z,68.68
2022-08-23T04:42:42.310Z,69.11
2022-08-23T04:45:09.707Z,68.67
2022-08-23T04:47:41.386Z,67.79
2022-08-23T04:50:10.392Z,67.16
2022-08-23T04:52:52.879Z,67.20
2022-08-23T04:55:20.387Z,67.43
2022-08-23T04:57:52.211Z,66.71
2022-08-23T05:00:22.685Z,67.99
2022-08-23T05:02:57.029Z,68.66
2022-08-23T05:05:25.323Z,68.89
2022-08-23T05:07:53.752Z,69.04
2022-08-23T05:10:21.704Z,68.72
2022-08-23T05:12:52.757Z,69.40
2022-08-23T05:15:21.687Z,69.33
2022-08-23T05:17:56.510Z,68.84
2022-08-23T05:20:24.707Z,68.15
2022-08-23T05:22:52.070Z,67.54
2022-08-23T05:25:52.452Z,68.06
2022-08-23T05:28:28.892Z,67.74
2022-08-23T05:30:59.511Z,68.01
2022-08-23T05:33:28.464Z,67.73
2022-08-23T05:35:56.019Z,67.49
2022-08-23T05:38:23.941Z,68.35
2022-08-23T05:40:54.946Z,68.14
2022-08-23T05:43:23.152Z,68.62
2022-08-23T05:46:06.833Z,68.73
2022-08-23T05:48:43.759Z,69.45
2022-08-23T05:51:22.867Z,68.89
2022-08-23T05:53:52.176Z,69.30
2022-08-23T05:56:27.625Z,69.21
2022-08-23T05:59:00.005Z,68.51
2022-08-23T06:01:30.311Z,68.26
2022-08-23T06:04:07.515Z,67.55
2022-08-23T06:06:37.598Z,66.93
2022-08-23T06:09:08.159Z,66.83
2022-08-23T06:11:38.262Z,67.05
2022-08-23T06:14:09.098Z,67.22
2022-08-23T06:16:40.751Z,67.09
2022-08-23T06:19:09.359Z,67.44
2022-08-23T06:21:55.555Z,67.06
2022-08-23T06:24:27.077Z,66.59
2022-08-23T06:27:01.188Z,66.40
2022-08-23T06:29:28.635Z,65.71
2022-08-23T06:32:14.949Z,65.65
2022-08-23T06:35:32.836Z,65.29
2022-08-23T06:37:56.828Z,64.53
2022-08-23T06:40:46.881Z,64.44
2022-08-23T06:43:30.510Z,64.51
2022-08-23T06:46:23.628Z,64.28
2022-08-23T06:48:51.668Z,63.57
2022-08-23T06:51:28.234Z,63.10
2022-08-23T06:54:03.247Z,62.78
2022-08-23T06:56:56.497Z,62.55
2022-08-23T06:59:32.824Z,63.17
2022-08-23T07:02:18.816Z,61.29
2022-08-23T07:04:58.810Z,61.40
2022-08-23T07:07:53.043Z,61.64
2022-08-23T07:10:20.345Z,63.82
2022-08-23T07:12:49.684Z,66.67
2022-08-23T07:15:20.267Z,65.57
2022-08-23T07:17:47.823Z,64.78
2022-08-23T07:20:15.581Z,66.94
2022-08-23T07:22:44.762Z,66.81
2022-08-23T07:25:12.893Z,68.15
2022-08-23T07:27:41.878Z,67.31
2022-08-23T07:30:10.628Z,67.09
2022-08-23T07:32:40.569Z,66.12
2022-08-23T07:35:40.318Z,65.20
2022-08-23T07:38:08.102Z,67.82
2022-08-23T07:40:39.167Z,69.98
2022-08-23T07:43:08.971Z,68.86
2022-08-23T07:45:38.709Z,69.03
2022-08-23T07:48:07.028Z,68.49
2022-08-23T07:50:54.513Z,69.06
2022-08-23T07:53:37.735Z,69.17
2022-08-23T07:56:09.051Z,68.10
2022-08-23T07:58:55.051Z,67.26
2022-08-23T08:01:39.264Z,68.14
2022-08-23T08:04:07.163Z,67.81
2022-08-23T08:06:46.401Z,66.35
2022-08-23T08:09:15.682Z,66.62
2022-08-23T08:11:47.516Z,66.69
2022-08-23T08:14:17.598Z,68.41
2022-08-23T08:17:03.594Z,68.28
2022-08-23T08:19:49.184Z,66.53
2022-08-23T08:22:35.549Z,64.62
2022-08-23T08:25:30.308Z,64.49
2022-08-23T08:27:58.429Z,62.32
2022-08-23T08:30:26.213Z,60.80
2022-08-23T08:32:53.850Z,61.52
2022-08-23T08:35:22.600Z,62.42
2022-08-23T08:37:50.407Z,63.16
2022-08-23T08:40:21.282Z,61.90
2022-08-23T08:42:55.029Z,60.98
2022-08-23T08:45:23.511Z,60.68
2022-08-23T08:48:10.138Z,59.67
2022-08-23T08:50:49.629Z,60.17
2022-08-23T08:53:20.238Z,61.42
2022-08-23T08:56:32.413Z,61.12
2022-08-23T08:59:55.422Z,61.01
2022-08-23T09:02:33.508Z,60.38
2022-08-23T09:05:17.943Z,59.83
2022-08-23T09:07:47.804Z,61.70
2022-08-23T09:10:46.250Z,60.97
2022-08-23T09:13:25.742Z,61.47
2022-08-23T09:16:05.185Z,60.69
2022-08-23T09:18:35.091Z,59.90
2022-08-23T09:21:07.178Z,59.67
2022-08-23T09:23:40.864Z,59.10
2022-08-23T09:26:20.406Z,58.35
2022-08-23T09:28:51.741Z,57.50
2022-08-23T09:31:43.428Z,56.57
2022-08-23T09:34:20.878Z,57.77
2022-08-23T09:37:23.014Z,58.50
2022-08-23T09:40:11.504Z,58.10
2022-08-23T09:42:40.226Z,57.99
2022-08-23T09:45:35.967Z,57.55
2022-08-23T09:48:07.376Z,57.42
2022-08-23T09:50:54.798Z,57.17
2022-08-23T09:53:29.925Z,56.33
2022-08-23T09:55:59.219Z,56.24
2022-08-23T09:58:44.031Z,56.08
2022-08-23T10:01:24.216Z,57.01
2022-08-23T10:04:10.871Z,57.17
2022-08-23T10:06:38.750Z,57.21
2022-08-23T10:09:08.362Z,56.61
2022-08-23T10:11:42.078Z,58.28
2022-08-23T10:14:15.651Z,58.32
2022-08-23T10:17:15.780Z,58.25
2022-08-23T10:20:21.658Z,57.73
2022-08-23T10:22:59.107Z,58.79
2022-08-23T10:25:42.066Z,58.33
2022-08-23T10:28:39.544Z,58.93
2022-08-23T10:31:16.317Z,57.24
2022-08-23T10:33:50.322Z,56.76
2022-08-23T10:36:47.914Z,56.59
2022-08-23T10:39:29.750Z,55.88
2022-08-23T10:41:57.352Z,56.50
2022-08-23T10:44:37.869Z,55.35
2022-08-23T10:47:28.792Z,55.91
2022-08-23T10:49:58.734Z,56.50
2022-08-23T10:52:31.654Z,58.04
2022-08-23T10:55:06.609Z,57.70
2022-08-23T10:57:39.417Z,58.49
2022-08-23T11:00:13.142Z,59.33
2022-08-23T11:02:45.053Z,59.18
2022-08-23T11:05:36.093Z,58.13
2022-08-23T11:08:31.865Z,56.80
2022-08-23T11:11:01.964Z,55.81
2022-08-23T11:13:35.156Z,54.74
2022-08-23T11:16:25.222Z,54.89
2022-08-23T11:18:52.709Z,55.43
2022-08-23T11:21:28.520Z,54.64
2022-08-23T11:23:59.266Z,53.66
2022-08-23T11:26:36.240Z,52.63
2022-08-23T11:29:06.534Z,51.65
2022-08-23T11:32:07.637Z,53.56
2022-08-23T11:34:40.389Z,54.81
2022-08-23T11:37:20.435Z,52.65
2022-08-23T11:39:58.629Z,53.52
2022-08-23T11:42:38.100Z,51.99
2022-08-23T11:45:20.611Z,51.86
2022-08-23T11:48:29.876Z,50.78
2022-08-23T11:51:28.694Z,50.68
2022-08-23T11:54:11.177Z,50.85
2022-08-23T11:56:47.372Z,50.39
2022-08-23T11:59:34.932Z,50.77
2022-08-23T12:03:06.861Z,49.78
2022-08-23T12:05:34.166Z,47.98
2022-08-23T12:08:01.587Z,49.72
2022-08-23T12:10:55.461Z,50.90
2022-08-23T12:13:22.715Z,50.47
2022-08-23T12:16:17.533Z,49.20
2022-08-23T12:18:50.908Z,49.25
2022-08-23T12:21:22.871Z,49.07
2022-08-23T12:23:53.713Z,47.94
2022-08-23T12:26:39.011Z,47.70
2022-08-23T12:29:45.172Z,47.52
2022-08-23T12:32:24.465Z,46.76
2022-08-23T12:35:25.144Z,47.72
2022-08-23T12:37:59.335Z,47.23
2022-08-23T12:40:54.403Z,46.46
2022-08-23T12:43:22.702Z,47.56
2022-08-23T12:45:55.630Z,47.19
2022-08-23T12:48:26.138Z,47.19
2022-08-23T12:50:59.846Z,46.70
2022-08-23T12:53:30.881Z,46.57
2022-08-23T12:56:07.633Z,45.73
2022-08-23T12:58:38.082Z,46.57
2022-08-23T13:01:25.114Z,46.06
2022-08-23T13:04:03.145Z,47.69
2022-08-23T13:06:36.015Z,45.21
2022-08-23T13:09:04.619Z,45.40
2022-08-23T13:11:33.505Z,45.30
2022-08-23T13:14:01.253Z,44.31
2022-08-23T13:16:31.990Z,43.28
2022-08-23T13:19:25.656Z,43.57
2022-08-23T13:22:32.070Z,43.95
2022-08-23T13:25:29.192Z,43.43
2022-08-23T13:28:01.140Z,44.44
2022-08-23T13:30:37.536Z,42.63
2022-08-23T13:33:08.102Z,42.47
2022-08-23T13:35:37.283Z,42.62
2022-08-23T13:38:07.728Z,42.40
2022-08-23T13:40:57.152Z,43.10
2022-08-23T13:43:31.773Z,43.55
2022-08-23T13:46:10.209Z,44.06
2022-08-23T13:48:39.281Z,43.98
2022-08-23T13:51:26.825Z,44.00
2022-08-23T13:53:55.778Z,44.08
2022-08-23T13:56:23.434Z,44.46
2022-08-23T13:59:26.942Z,44.59
2022-08-23T14:02:01.763Z,45.56
2022-08-23T14:04:29.403Z,45.56
2022-08-23T14:06:56.688Z,46.12
2022-08-23T14:09:24.015Z,46.90
2022-08-23T14:11:54.833Z,46.34
2022-08-23T14:14:22.237Z,46.82
2022-08-23T14:16:49.643Z,47.17
2022-08-23T14:19:54.570Z,48.09
2022-08-23T14:22:04.837Z,46.50
2022-08-23T14:24:32.501Z,46.39
2022-08-23T14:27:00.333Z,47.36
2022-08-23T14:29:30.931Z,46.10
2022-08-23T14:31:59.266Z,45.72
2022-08-23T14:34:28.364Z,44.84
2022-08-23T14:39:43.888Z,46.31
2022-08-23T14:42:12.557Z,45.70
2022-08-23T14:44:39.847Z,46.13
2022-08-23T14:47:07.213Z,44.57
2022-08-23T14:49:34.551Z,44.79
2022-08-23T14:52:02.529Z,43.46
2022-08-23T14:54:30.403Z,44.89
2022-08-23T14:56:57.684Z,45.23
2022-08-23T14:59:25.242Z,44.77
2022-08-23T15:01:53.986Z,45.85
2022-08-23T15:04:23.273Z,45.17
2022-08-23T15:07:16.059Z,45.19
2022-08-23T15:09:38.807Z,44.87
2022-08-23T15:12:58.317Z,45.29
2022-08-23T15:14:56.836Z,45.04
2022-08-23T15:17:30.299Z,45.77
2022-08-23T15:19:58.844Z,46.29
2022-08-23T15:22:26.241Z,45.60
2022-08-23T15:24:53.472Z,45.91
2022-08-23T15:27:21.672Z,45.71
2022-08-23T15:29:48.960Z,46.17
2022-08-23T15:32:18.507Z,46.21
2022-08-23T15:34:50.525Z,47.00
2022-08-23T15:37:20.375Z,46.21
2022-08-23T15:39:48.698Z,45.13
2022-08-23T15:42:20.588Z,45.31
2022-08-23T15:44:49.047Z,45.33
2022-08-23T15:47:26.725Z,45.31
2022-08-23T15:49:54.198Z,46.35
2022-08-23T15:52:21.551Z,46.72
2022-08-23T15:54:49.182Z,46.76
2022-08-23T15:57:18.692Z,46.53
2022-08-23T15:59:46.238Z,46.73
2022-08-23T16:02:13.564Z,46.35
2022-08-23T16:04:40.955Z,46.27
2022-08-23T16:07:10.081Z,46.14
2022-08-23T16:09:37.372Z,46.08
2022-08-23T16:12:05.560Z,46.09
2022-08-23T16:14:33.317Z,46.25
2022-08-23T16:17:01.036Z,45.81
2022-08-23T16:19:28.556Z,46.86
2022-08-23T16:21:57.058Z,45.19
2022-08-23T16:24:24.837Z,46.23
2022-08-23T16:26:52.411Z,46.78
2022-08-23T16:29:20.471Z,46.35
2022-08-23T16:31:48.089Z,46.39
2022-08-23T16:34:18.576Z,45.23
2022-08-23T16:36:49.733Z,45.66
2022-08-23T16:39:17.062Z,45.06
2022-08-23T16:41:44.680Z,45.30
2022-08-23T16:44:12.043Z,45.47
2022-08-23T16:46:43.920Z,46.86
2022-08-23T16:49:12.691Z,45.23
2022-08-23T16:51:40.359Z,45.70
2022-08-23T16:54:08.429Z,45.35
2022-08-23T16:56:36.890Z,45.87
2022-08-23T16:59:05.424Z,47.04
2022-08-23T17:01:44.942Z,45.54
2022-08-23T17:04:12.681Z,46.02
2022-08-23T17:06:40.077Z,46.86
2022-08-23T17:09:07.295Z,47.53
2022-08-23T17:11:35.780Z,47.09
2022-08-23T17:14:05.182Z,46.16
2022-08-23T17:16:33.224Z,45.65
2022-08-23T17:19:00.724Z,46.41
2022-08-23T17:21:28.335Z,45.89
2022-08-23T17:23:55.719Z,46.08
2022-08-23T17:26:23.004Z,47.03
2022-08-23T17:28:50.243Z,46.31
2022-08-23T17:31:19.465Z,45.05
2022-08-23T17:33:47.215Z,45.31
2022-08-23T17:36:34.682Z,43.86
2022-08-23T17:39:02.681Z,44.79
2022-08-23T17:41:30.083Z,44.45
2022-08-23T17:44:04.452Z,45.89
2022-08-23T17:46:36.112Z,43.93
2022-08-23T17:49:04.952Z,45.78
2022-08-23T17:51:32.996Z,47.64
2022-08-23T17:54:00.290Z,46.29
2022-08-23T17:56:27.632Z,43.75
2022-08-23T17:58:55.203Z,43.66
2022-08-23T18:01:22.680Z,43.57
2022-08-23T18:03:50.680Z,44.34
2022-08-23T18:06:18.259Z,44.01
2022-08-23T18:08:46.242Z,45.17
2022-08-23T18:11:14.094Z,48.26
2022-08-23T18:13:41.384Z,48.57
2022-08-23T18:16:08.857Z,47.36
2022-08-23T18:18:36.162Z,47.84
2022-08-23T18:21:05.942Z,47.53
2022-08-23T18:23:33.674Z,47.18
2022-08-23T18:26:08.368Z,46.38
2022-08-23T18:28:35.643Z,47.17
2022-08-23T18:31:03.792Z,47.61
2022-08-23T18:33:46.487Z,47.97
2022-08-23T18:36:15.597Z,47.97
2022-08-23T18:38:42.897Z,47.79
2022-08-23T18:41:13.096Z,47.93
2022-08-23T18:43:41.533Z,47.70
2022-08-23T18:46:09.249Z,46.62
2022-08-23T18:48:36.949Z,47.50
2022-08-23T18:51:05.727Z,47.15
2022-08-23T18:53:44.137Z,48.60
2022-08-23T18:56:11.416Z,50.03
2022-08-23T18:58:41.071Z,53.04
2022-08-23T19:01:21.775Z,52.32
2022-08-23T19:03:49.270Z,53.50
2022-08-23T19:06:16.543Z,51.70
2022-08-23T19:08:43.885Z,52.90
2022-08-23T19:11:11.572Z,53.38
2022-08-23T19:13:39.162Z,52.51
2022-08-23T19:16:06.944Z,52.84
2022-08-23T19:18:34.235Z,53.83
2022-08-23T19:21:04.353Z,53.48
2022-08-23T19:23:32.576Z,53.58
2022-08-23T19:26:00.445Z,54.35
2022-08-23T19:28:27.935Z,53.38
2022-08-23T19:30:55.414Z,52.24
2022-08-23T19:33:23.068Z,52.47
2022-08-23T19:35:50.857Z,54.00
2022-08-23T19:38:18.655Z,54.44
2022-08-23T19:40:46.071Z,55.29
2022-08-23T19:43:14.414Z,55.24
2022-08-23T19:45:42.113Z,55.50
2022-08-23T19:48:10.009Z,55.46
2022-08-23T19:50:39.661Z,54.82
2022-08-23T19:53:07.432Z,55.21
2022-08-23T19:55:38.035Z,55.77
2022-08-23T19:58:06.061Z,55.54
2022-08-23T20:00:34.155Z,56.09
2022-08-23T20:03:02.479Z,54.83
2022-08-23T20:05:31.403Z,54.40
2022-08-23T20:08:00.186Z,55.20
2022-08-23T20:10:27.933Z,55.14
2022-08-23T20:12:55.290Z,55.10
2022-08-23T20:15:23.958Z,53.89
2022-08-23T20:17:52.247Z,52.59
2022-08-23T20:20:19.540Z,52.43
2022-08-23T20:23:05.432Z,52.35
2022-08-23T20:25:32.718Z,52.42
2022-08-23T20:28:00.057Z,52.08
2022-08-23T20:30:27.337Z,52.82
2022-08-23T20:32:54.981Z,52.81
2022-08-23T20:35:22.275Z,52.18
2022-08-23T20:37:49.532Z,52.12
2022-08-23T20:40:17.014Z,52.68
2022-08-23T20:42:44.350Z,52.30
2022-08-23T20:45:11.824Z,53.06
2022-08-23T20:47:41.205Z,53.39
2022-08-23T20:50:08.843Z,53.04
2022-08-23T20:52:36.068Z,53.12
2022-08-23T20:55:04.109Z,53.48
2022-08-23T20:57:38.830Z,54.08
2022-08-23T21:00:07.795Z,53.69
2022-08-23T21:02:35.131Z,53.21
2022-08-23T21:05:03.896Z,53.22
2022-08-23T21:07:34.188Z,53.66
2022-08-23T21:10:01.464Z,54.01
2022-08-23T21:12:28.712Z,53.79
2022-08-23T21:14:56.878Z,54.64
2022-08-23T21:17:24.152Z,54.42
2022-08-23T21:19:51.395Z,54.24
2022-08-23T21:22:18.650Z,54.42
2022-08-23T21:24:47.692Z,54.11
2022-08-23T21:27:16.086Z,55.65
2022-08-23T21:29:43.505Z,55.60
2022-08-23T21:32:10.751Z,55.69
2022-08-23T21:34:37.982Z,55.96
2022-08-23T21:37:06.640Z,55.13
2022-08-23T21:39:33.923Z,55.61
2022-08-23T21:42:01.410Z,56.77
2022-08-23T21:44:28.725Z,56.59
2022-08-23T21:46:56.068Z,57.73
2022-08-23T21:49:23.367Z,58.03
2022-08-23T21:51:52.454Z,57.86
2022-08-23T21:54:20.175Z,58.30
2022-08-23T21:56:47.442Z,58.37
2022-08-23T21:59:16.940Z,58.16
2022-08-23T22:01:44.854Z,58.13
2022-08-23T22:04:14.376Z,58.26
2022-08-23T22:06:44.397Z,58.51
2022-08-23T22:09:13.615Z,58.34
2022-08-23T22:11:43.085Z,59.44
2022-08-23T22:14:13.067Z,59.76
2022-08-23T22:16:41.254Z,59.93
2022-08-23T22:19:08.412Z,59.91
2022-08-23T22:21:35.922Z,60.36
2022-08-23T22:24:03.477Z,60.17
2022-08-23T22:26:30.834Z,60.13
2022-08-23T22:28:58.169Z,60.56
2022-08-23T22:31:25.877Z,59.86
2022-08-23T22:33:53.258Z,60.38
2022-08-23T22:36:22.087Z,60.46
2022-08-23T22:38:50.572Z,60.56
2022-08-23T22:41:20.637Z,60.46
2022-08-23T22:43:48.017Z,60.56
2022-08-23T22:46:15.471Z,60.58
2022-08-23T22:48:42.746Z,61.01
2022-08-23T22:51:14.198Z,61.08
2022-08-23T22:53:47.722Z,60.88
2022-08-23T22:56:30.652Z,61.64
2022-08-23T22:58:58.870Z,61.00
2022-08-23T23:01:30.507Z,61.01
2022-08-23T23:03:59.910Z,61.31
2022-08-23T23:06:28.141Z,63.30
2022-08-23T23:08:56.231Z,65.05
2022-08-23T23:11:23.952Z,64.20
2022-08-23T23:13:51.492Z,63.19
2022-08-23T23:16:22.277Z,62.65
2022-08-23T23:19:12.746Z,62.19
2022-08-23T23:21:48.644Z,63.49
2022-08-23T23:24:19.592Z,63.75
2022-08-23T23:26:47.743Z,63.87
2022-08-23T23:29:15.249Z,64.22
2022-08-23T23:31:42.885Z,64.26
2022-08-23T23:34:10.140Z,63.96
2022-08-23T23:36:37.557Z,64.27
2022-08-23T23:39:06.461Z,64.37
2022-08-23T23:41:34.322Z,63.79
2022-08-23T23:44:02.104Z,64.69
2022-08-23T23:46:30.165Z,64.23
2022-08-23T23:48:57.485Z,65.03
2022-08-23T23:51:29.791Z,65.22
2022-08-23T23:53:58.538Z,65.03
2022-08-23T23:56:29.773Z,65.81
2022-08-23T23:58:58.555Z,65.02
